Flight Track Log - Related Links

Times and Time Zones

All times are in EDT time to prevent confusion due to time zone crossing. See the UAL6073 flight status page for this flight to view local times or setup timezone preferences in your user account.

Time Position Orientation Groundspeed Altitude Reporting Facility
EDT Latitude Longitude Course Direction KTS MPH feet Rate Location/Type
Mon 11:18:58 AM 29.9594 -95.3414 97° East 157 181 700  Level Houston Center
Mon 11:20:05 AM 29.9250 -95.2878 127° Southeast 205 236 2,400 1,828 Climbing Houston Center
Mon 11:21:06 AM 29.8856 -95.2225 125° Southeast 249 287 4,600 2,103 Climbing Houston Center
Mon 11:22:02 AM 29.8528 -95.1639 123° Southeast 251 289 6,500 2,051 Climbing Houston Center
Mon 11:23:00 AM 29.9013 -94.6820 95° East  Level FlightAware Approximate
Mon 11:23:03 AM 29.8547 -95.0722 89° East 276 318 8,600  Level Houston Center
Mon 11:24:00 AM 29.8873 -94.5513 97° East  Level FlightAware Approximate
Mon 11:24:04 AM 29.8544 -94.9806 90° East 285 328 10,500  Level Houston Center
Mon 11:25:30 AM 29.8567 -94.8503 89° East 308 354 11,700 932 Climbing Houston Center
Mon 11:26:32 AM 29.8581 -94.7400 89° East 339 390 12,800 1,008 Climbing Houston Center
Mon 11:27:35 AM 29.8592 -94.6269 89° East 351 404 13,800 1,104 Climbing Houston Center
Mon 11:28:37 AM 29.8603 -94.4889 89° East 358 412 15,100 1,161 Climbing Houston Center
Mon 11:29:39 AM 29.8614 -94.3719 89° East 364 419 16,200 1,065 Climbing Houston Center
Mon 11:30:41 AM 29.8603 -94.2550 91° East 365 420 17,300 919 Climbing Houston Center
Mon 11:31:43 AM 29.8556 -94.1317 92° East 368 423 18,100 919 Climbing Houston Center
Mon 11:32:45 AM 29.8556 -94.0144 90° East 368 423 19,200 1,016 Climbing Houston Center
Mon 11:33:47 AM 29.8694 -93.8981 82° East 369 425 20,200 968 Climbing Houston Center
Mon 11:34:49 AM 29.8817 -93.7808 83° East 370 426 21,200 1,113 Climbing Houston Center
Mon 11:35:51 AM 29.8956 -93.6389 84° East 375 432 22,500 1,113 Climbing Houston Center
Mon 11:36:53 AM 29.9208 -93.5247 76° East 371 427 23,500 960 Climbing Houston Center
Mon 11:37:56 AM 29.9508 -93.4111 73° East 374 430 24,500 960 Climbing Houston Center
Mon 11:38:58 AM 29.9797 -93.2972 74° East 374 430 25,500 1,016 Climbing Houston Center
Mon 11:40:00 AM 30.0092 -93.1825 73° East 376 433 26,600 1,113 Climbing Houston Center
Mon 11:41:02 AM 30.0447 -93.0447 73° East 376 433 27,800 1,065 Climbing Houston Center
Mon 11:42:04 AM 30.0561 -92.9233 84° East 380 437 28,800 1,016 Climbing Houston Center
Mon 11:43:06 AM 30.0581 -92.8014 89° East 381 438 29,900 1,016 Climbing Houston Center
Mon 11:44:08 AM 30.0628 -92.6772 87° East 387 445 30,900 1,016 Climbing Houston Center
Mon 11:45:10 AM 30.0658 -92.5525 88° East 389 448 32,000 1,161 Climbing Houston Center
Mon 11:46:12 AM 30.0708 -92.4011 88° East 393 452 33,300 1,210 Climbing Houston Center
Mon 11:47:14 AM 30.0781 -92.2778 86° East 387 445 34,500 816 Climbing Houston Center
Mon 11:48:17 AM 30.1111 -92.1603 72° East 383 441 35,000 240 Climbing Houston Center
Mon 11:49:19 AM 30.1458 -92.0372 72° East 401 461 35,000  Level Houston Center
Mon 11:50:21 AM 30.1814 -91.9075 72° East 419 482 35,000  Level Houston Center
Mon 11:51:23 AM 30.2233 -91.7614 72° East 439 505 35,000  Level Houston Center
Mon 11:52:25 AM 30.2619 -91.6231 72° East 447 514 35,000  Level Houston Center
Mon 11:53:27 AM 30.3000 -91.4850 72° East 452 520 35,000  Level Houston Center
Mon 11:54:29 AM 30.3475 -91.3175 72° East 457 526 35,000  Level Houston Center
Mon 11:55:31 AM 30.3856 -91.1794 72° East 452 520 35,000  Level Houston Center
Mon 11:56:33 AM 30.4211 -91.0425 73° East 447 514 35,000  Level Houston Center
Mon 11:57:35 AM 30.4600 -90.9053 72° East 448 516 35,000  Level Houston Center
Mon 11:58:37 AM 30.4961 -90.7697 73° East 442 509 35,000  Level Houston Center
Mon 11:59:39 AM 30.5347 -90.6356 71° East 440 506 35,000  Level Houston Center
Mon 12:00:42 PM 30.5972 -90.4803 65° Northeast 441 507 35,000  Level Houston Center
Mon 12:01:44 PM 30.6478 -90.3506 66° East 440 506 35,000 -48 Level Houston Center
Mon 12:02:46 PM 30.6947 -90.2172 68° East 444 511 34,900 97 Descending Houston Center
Mon 12:03:48 PM 30.7283 -90.0778 74° East 446 513 35,200 532 Climbing Houston Center
Mon 12:04:50 PM 30.7611 -89.9389 75° East 445 512 36,000 387 Climbing Houston Center
Mon 12:05:52 PM 30.7917 -89.7994 76° East 443 510 36,000  Level Houston Center
Mon 12:06:54 PM 30.8175 -89.6531 78° East 456 525 36,000  Level Houston Center
Mon 12:07:56 PM 30.8325 -89.5044 83° East 459 528 36,000  Level Houston Center
Mon 12:08:58 PM 30.8489 -89.3325 84° East 445 512 36,000  Level Houston Center
Mon 12:10:00 PM 30.8672 -89.1903 81° East 444 511 36,000 -242 Level Houston Center
Mon 12:11:02 PM 30.8853 -89.0506 81° East 438 504 35,500 -484 Descending Houston Center
Mon 12:12:04 PM 30.8978 -88.9122 84° East 450 518 35,000 -242 Descending Houston Center
Mon 12:13:06 PM 30.9258 -88.7736 77° East 444 511 35,000  Level Houston Center
Mon 12:14:08 PM 30.9969 -88.6314 60° Northeast 423 487 35,000  Level Houston Center
Mon 12:15:10 PM 31.0647 -88.5125 56° Northeast 419 482 35,000  Level Houston Center
Mon 12:16:12 PM 31.1283 -88.3969 57° Northeast 421 484 35,000  Level Houston Center
Mon 12:17:14 PM 31.1878 -88.2797 59° Northeast 426 490 35,000  Level Houston Center
Mon 12:18:16 PM 31.2550 -88.1647 56° Northeast 424 488 35,000  Level Houston Center
Mon 12:19:18 PM 31.3164 -88.0481 58° Northeast 419 482 35,000  Level Houston Center
Mon 12:20:21 PM 31.3797 -87.9292 58° Northeast 427 491 35,000  Level Houston Center
Mon 12:21:23 PM 31.4431 -87.8092 58° Northeast 432 497 35,000  Level Houston Center
Mon 12:22:25 PM 31.5183 -87.6683 58° Northeast 423 487 35,000  Level Houston Center
Mon 12:23:27 PM 31.5789 -87.5528 58° Northeast 417 480 35,000  Level Houston Center
Mon 12:24:29 PM 31.6431 -87.4344 57° Northeast 428 493 35,000  Level Houston Center
Mon 12:25:31 PM 31.7094 -87.3128 57° Northeast 441 507 35,000  Level Houston Center
Mon 12:26:33 PM 31.7786 -87.1906 56° Northeast 449 517 35,000  Level Houston Center
Mon 12:27:35 PM 31.8467 -87.0672 57° Northeast 450 518 35,000  Level Houston Center
Mon 12:28:37 PM 31.9278 -86.9214 57° Northeast 443 510 35,000  Level Houston Center
Mon 12:29:39 PM 31.9944 -86.7989 57° Northeast 444 511 35,000  Level Houston Center
Mon 12:30:54 PM 32.0800 -86.6592 54° Northeast 450 518 35,000  Level Atlanta Center
Mon 12:31:54 PM 32.1450 -86.5336 59° Northeast 450 518 35,000  Level Atlanta Center
Mon 12:32:54 PM 32.2125 -86.3931 60° Northeast 450 518 35,000  Level Atlanta Center
Mon 12:33:54 PM 32.2589 -86.2642 67° East 447 514 35,000  Level Atlanta Center
Mon 12:34:54 PM 32.3444 -86.1383 51° Northeast 452 520 35,000  Level Atlanta Center
Mon 12:35:54 PM 32.4194 -86.0197 53° Northeast 452 520 35,000  Level Atlanta Center
Mon 12:36:54 PM 32.4836 -85.9250 51° Northeast 457 526 35,000  Level Atlanta Center
Mon 12:37:54 PM 32.5817 -85.7867 50° Northeast 471 542 35,000  Level Atlanta Center
Mon 12:38:54 PM 32.6606 -85.6647 52° Northeast 466 536 35,000  Level Atlanta Center
Mon 12:39:54 PM 32.7414 -85.5478 51° Northeast 466 536 35,000  Level Atlanta Center
Mon 12:40:54 PM 32.8178 -85.4328 52° Northeast 460 529 35,000 -350 Level Atlanta Center
Mon 12:41:54 PM 32.8964 -85.3178 51° Northeast 455 524 34,300 -750 Descending Atlanta Center
Mon 12:42:54 PM 32.9706 -85.1975 54° Northeast 455 524 33,500 -800 Descending Atlanta Center
Mon 12:43:54 PM 33.0594 -85.0700 50° Northeast 455 524 32,700 -800 Descending Atlanta Center
Mon 12:44:54 PM 33.1356 -84.9542 52° Northeast 455 524 31,900 -750 Descending Atlanta Center
Mon 12:45:54 PM 33.2114 -84.8383 52° Northeast 450 518 31,200 -600 Descending Atlanta Center
Mon 12:46:54 PM 33.2853 -84.7222 53° Northeast 440 506 30,700 -650 Descending Atlanta Center
Mon 12:47:54 PM 33.3631 -84.6033 52° Northeast 452 520 29,900 -750 Descending Atlanta Center
Mon 12:48:54 PM 33.4303 -84.4969 53° Northeast 452 520 29,200 -800 Descending Atlanta Center
Mon 12:49:54 PM 33.5078 -84.3778 52° Northeast 452 520 28,300 -850 Descending Atlanta Center
Mon 12:50:54 PM 33.5833 -84.2583 53° Northeast 452 520 27,500 -850 Descending Atlanta Center
Mon 12:51:54 PM 33.6564 -84.1386 54° Northeast 452 520 26,600 -800 Descending Atlanta Center
Mon 12:52:54 PM 33.7317 -84.0214 52° Northeast 452 520 25,900 -650 Descending Atlanta Center
Mon 12:53:54 PM 33.8089 -83.9014 52° Northeast 452 520 25,300 -750 Descending Atlanta Center
Mon 12:54:54 PM 33.8567 -83.7686 67° East 436 502 24,400 -950 Descending Atlanta Center
Mon 12:55:54 PM 33.9064 -83.6308 66° East 436 502 23,400 -1,750 Descending Atlanta Center
Mon 12:56:54 PM 33.9558 -83.4978 66° East 436 502 20,900 -2,100 Descending Atlanta Center
Mon 12:57:54 PM 33.9947 -83.3647 71° East 430 495 19,200 -950 Descending Atlanta Center
Mon 12:58:54 PM 34.0233 -83.2342 75° East 413 475 19,000 -650 Descending Atlanta Center
Mon 12:59:54 PM 34.0597 -83.0908 73° East 407 468 17,900 -1,100 Descending Atlanta Center
Mon 01:00:54 PM 34.0983 -82.9675 69° East 402 463 16,800 -1,650 Descending Atlanta Center
Mon 01:01:54 PM 34.1814 -82.8911 37° Northeast 363 418 14,600 -2,400 Descending Atlanta Center
Mon 01:02:54 PM 34.2619 -82.8172 37° Northeast 358 412 12,000 -2,200 Descending Atlanta Center
Mon 01:03:54 PM 34.3261 -82.7586 37° Northeast 345 397 10,200 -1,650 Descending Atlanta Center
Mon 01:04:54 PM 34.3881 -82.6947 40° Northeast 315 362 8,700 -1,450 Descending Atlanta Center
Mon 01:05:54 PM 34.4542 -82.6481 30° Northeast 289 333 7,300 -850 Descending Atlanta Center
Mon 01:06:54 PM 34.5247 -82.6167 20° North 268 308 7,000 -150 Descending Atlanta Center
Mon 01:07:54 PM 34.5975 -82.5828 21° North 263 303 7,000  Level Atlanta Center
Mon 01:08:54 PM 34.6681 -82.5461 23° Northeast 270 311 7,000  Level Atlanta Center
Mon 01:09:54 PM 34.7406 -82.5019 27° Northeast 275 316 7,000  Level Atlanta Center
Mon 01:10:54 PM 34.8108 -82.4600 26° Northeast 275 316 7,000 -250 Level Atlanta Center
Mon 01:11:54 PM 34.8728 -82.4058 36° Northeast 275 316 6,500 -500 Descending Atlanta Center
Mon 01:13:00 PM 34.8905 -82.2610 39° Northeast  Level Estimated
Mon 01:20:00 PM 34.8833 -82.2167 39° Northeast  Level FlightAware Approximate

Login

Don't have an account? Register now (free) for customized features, flight alerts, and more!